sensor_id;sensor_type;location;lat;lon;timestamp;temperature;humidity
41447;DHT22;27185;52.040;4.490;2024-01-11T00:00:11;-1.50;99.90
41447;DHT22;27185;52.040;4.490;2024-01-11T00:02:57;-1.50;99.90
41447;DHT22;27185;52.040;4.490;2024-01-11T00:05:43;-1.50;99.90
41447;DHT22;27185;52.040;4.490;2024-01-11T00:08:28;-1.50;99.90
41447;DHT22;27185;52.040;4.490;2024-01-11T00:11:14;-1.40;99.90
41447;DHT22;27185;52.040;4.490;2024-01-11T00:14:00;-1.40;99.90
41447;DHT22;27185;52.040;4.490;2024-01-11T00:16:45;-1.40;99.90
41447;DHT22;27185;52.040;4.490;2024-01-11T00:19:31;-1.40;99.90
41447;DHT22;27185;52.040;4.490;2024-01-11T00:22:17;-1.40;99.90
41447;DHT22;27185;52.040;4.490;2024-01-11T00:25:03;-1.40;99.90
41447;DHT22;27185;52.040;4.490;2024-01-11T00:27:49;-1.40;99.90
41447;DHT22;27185;52.040;4.490;2024-01-11T00:30:35;-1.40;99.90
41447;DHT22;27185;52.040;4.490;2024-01-11T00:33:20;-1.50;99.90
41447;DHT22;27185;52.040;4.490;2024-01-11T00:36:06;-1.50;99.90
41447;DHT22;27185;52.040;4.490;2024-01-11T00:38:55;-1.50;99.90
41447;DHT22;27185;52.040;4.490;2024-01-11T00:41:40;-1.40;99.90
41447;DHT22;27185;52.040;4.490;2024-01-11T00:44:26;-1.50;99.90
41447;DHT22;27185;52.040;4.490;2024-01-11T00:47:11;-1.50;99.90
41447;DHT22;27185;52.040;4.490;2024-01-11T00:49:57;-1.50;99.90
41447;DHT22;27185;52.040;4.490;2024-01-11T00:52:43;-1.50;99.90
41447;DHT22;27185;52.040;4.490;2024-01-11T00:55:32;-1.50;99.90
41447;DHT22;27185;52.040;4.490;2024-01-11T00:58:18;-1.50;99.90
41447;DHT22;27185;52.040;4.490;2024-01-11T01:01:09;-1.50;99.90
41447;DHT22;27185;52.040;4.490;2024-01-11T01:03:54;-1.60;99.90
41447;DHT22;27185;52.040;4.490;2024-01-11T01:06:41;-1.60;99.90
41447;DHT22;27185;52.040;4.490;2024-01-11T01:09:26;-1.60;99.90
41447;DHT22;27185;52.040;4.490;2024-01-11T01:12:12;-1.60;99.90
41447;DHT22;27185;52.040;4.490;2024-01-11T01:14:58;-1.60;99.90
41447;DHT22;27185;52.040;4.490;2024-01-11T01:17:43;-1.60;99.90
41447;DHT22;27185;52.040;4.490;2024-01-11T01:20:29;-1.70;99.90
41447;DHT22;27185;52.040;4.490;2024-01-11T01:23:15;-1.70;99.90
41447;DHT22;27185;52.040;4.490;2024-01-11T01:26:00;-1.70;99.90
41447;DHT22;27185;52.040;4.490;2024-01-11T01:28:46;-1.70;99.90
41447;DHT22;27185;52.040;4.490;2024-01-11T01:31:32;-1.70;99.90
41447;DHT22;27185;52.040;4.490;2024-01-11T01:34:22;-1.80;99.90
41447;DHT22;27185;52.040;4.490;2024-01-11T01:37:08;-1.80;99.90
41447;DHT22;27185;52.040;4.490;2024-01-11T01:39:53;-1.80;99.90
41447;DHT22;27185;52.040;4.490;2024-01-11T01:42:46;-1.80;99.90
41447;DHT22;27185;52.040;4.490;2024-01-11T01:45:32;-1.80;99.90
41447;DHT22;27185;52.040;4.490;2024-01-11T01:48:17;-1.80;99.90
41447;DHT22;27185;52.040;4.490;2024-01-11T01:51:03;-1.80;99.90
41447;DHT22;27185;52.040;4.490;2024-01-11T01:53:51;-1.80;99.90
41447;DHT22;27185;52.040;4.490;2024-01-11T01:56:38;-1.80;99.90
41447;DHT22;27185;52.040;4.490;2024-01-11T01:59:25;-1.90;99.90
41447;DHT22;27185;52.040;4.490;2024-01-11T02:02:12;-1.90;99.90
41447;DHT22;27185;52.040;4.490;2024-01-11T02:04:57;-1.90;99.90
41447;DHT22;27185;52.040;4.490;2024-01-11T02:07:44;-1.90;99.90
41447;DHT22;27185;52.040;4.490;2024-01-11T02:10:32;-1.90;99.90
41447;DHT22;27185;52.040;4.490;2024-01-11T02:13:19;-2.00;99.90
41447;DHT22;27185;52.040;4.490;2024-01-11T02:16:05;-2.00;99.90
41447;DHT22;27185;52.040;4.490;2024-01-11T02:18:51;-2.00;99.90
41447;DHT22;27185;52.040;4.490;2024-01-11T02:21:36;-2.00;99.90
41447;DHT22;27185;52.040;4.490;2024-01-11T02:24:22;-2.00;99.90
41447;DHT22;27185;52.040;4.490;2024-01-11T02:27:08;-2.00;99.90
41447;DHT22;27185;52.040;4.490;2024-01-11T02:29:56;-2.10;99.90
41447;DHT22;27185;52.040;4.490;2024-01-11T02:32:43;-2.10;99.90
41447;DHT22;27185;52.040;4.490;2024-01-11T02:35:31;-2.10;99.90
41447;DHT22;27185;52.040;4.490;2024-01-11T02:38:17;-2.10;99.90
41447;DHT22;27185;52.040;4.490;2024-01-11T02:41:03;-2.10;99.90
41447;DHT22;27185;52.040;4.490;2024-01-11T02:43:51;-2.10;99.90
41447;DHT22;27185;52.040;4.490;2024-01-11T02:46:37;-2.10;99.90
41447;DHT22;27185;52.040;4.490;2024-01-11T02:49:23;-2.20;99.90
41447;DHT22;27185;52.040;4.490;2024-01-11T02:52:09;-2.20;99.90
41447;DHT22;27185;52.040;4.490;2024-01-11T02:54:54;-2.20;99.90
41447;DHT22;27185;52.040;4.490;2024-01-11T02:57:40;-2.20;99.90
41447;DHT22;27185;52.040;4.490;2024-01-11T03:00:25;-2.10;99.90
41447;DHT22;27185;52.040;4.490;2024-01-11T03:03:11;-2.10;99.90
41447;DHT22;27185;52.040;4.490;2024-01-11T03:05:57;-2.20;99.90
41447;DHT22;27185;52.040;4.490;2024-01-11T03:08:42;-2.10;99.90
41447;DHT22;27185;52.040;4.490;2024-01-11T03:11:28;-2.10;99.90
41447;DHT22;27185;52.040;4.490;2024-01-11T03:14:13;-2.20;99.90
41447;DHT22;27185;52.040;4.490;2024-01-11T03:16:59;-2.20;99.90
41447;DHT22;27185;52.040;4.490;2024-01-11T03:19:45;-2.30;99.90
41447;DHT22;27185;52.040;4.490;2024-01-11T03:22:30;-2.30;99.90
41447;DHT22;27185;52.040;4.490;2024-01-11T03:25:19;-2.30;99.90
41447;DHT22;27185;52.040;4.490;2024-01-11T03:28:04;-2.30;99.90
41447;DHT22;27185;52.040;4.490;2024-01-11T03:30:50;-2.40;99.90
41447;DHT22;27185;52.040;4.490;2024-01-11T03:33:36;-2.40;99.90
41447;DHT22;27185;52.040;4.490;2024-01-11T03:36:25;-2.50;99.90
41447;DHT22;27185;52.040;4.490;2024-01-11T03:39:10;-2.50;99.90
41447;DHT22;27185;52.040;4.490;2024-01-11T03:41:56;-2.60;99.90
41447;DHT22;27185;52.040;4.490;2024-01-11T03:44:42;-2.60;99.90
41447;DHT22;27185;52.040;4.490;2024-01-11T03:47:28;-2.70;99.90
41447;DHT22;27185;52.040;4.490;2024-01-11T03:50:13;-2.70;99.90
41447;DHT22;27185;52.040;4.490;2024-01-11T03:52:59;-2.70;99.90
41447;DHT22;27185;52.040;4.490;2024-01-11T03:55:44;-2.70;99.90
41447;DHT22;27185;52.040;4.490;2024-01-11T03:58:30;-2.60;99.90
41447;DHT22;27185;52.040;4.490;2024-01-11T04:01:16;-2.60;99.90
41447;DHT22;27185;52.040;4.490;2024-01-11T04:04:01;-2.60;99.90
41447;DHT22;27185;52.040;4.490;2024-01-11T04:06:47;-2.60;99.90
41447;DHT22;27185;52.040;4.490;2024-01-11T04:09:33;-2.60;99.90
41447;DHT22;27185;52.040;4.490;2024-01-11T04:12:19;-2.60;99.90
41447;DHT22;27185;52.040;4.490;2024-01-11T04:15:04;-2.60;99.90
41447;DHT22;27185;52.040;4.490;2024-01-11T04:17:50;-2.60;99.90
41447;DHT22;27185;52.040;4.490;2024-01-11T04:20:36;-2.60;99.90
41447;DHT22;27185;52.040;4.490;2024-01-11T04:23:21;-2.60;99.90
41447;DHT22;27185;52.040;4.490;2024-01-11T04:26:07;-2.70;99.90
41447;DHT22;27185;52.040;4.490;2024-01-11T04:28:53;-2.70;99.90
41447;DHT22;27185;52.040;4.490;2024-01-11T04:31:39;-2.70;99.90
41447;DHT22;27185;52.040;4.490;2024-01-11T04:34:24;-2.80;99.90
41447;DHT22;27185;52.040;4.490;2024-01-11T04:37:10;-2.80;99.90
41447;DHT22;27185;52.040;4.490;2024-01-11T04:39:55;-2.80;99.90
41447;DHT22;27185;52.040;4.490;2024-01-11T04:42:45;-2.90;99.90
41447;DHT22;27185;52.040;4.490;2024-01-11T04:45:30;-2.90;99.90
41447;DHT22;27185;52.040;4.490;2024-01-11T04:48:16;-2.90;99.90
41447;DHT22;27185;52.040;4.490;2024-01-11T04:51:01;-2.90;99.90
41447;DHT22;27185;52.040;4.490;2024-01-11T04:53:47;-3.00;99.90
41447;DHT22;27185;52.040;4.490;2024-01-11T04:56:33;-3.00;99.90
41447;DHT22;27185;52.040;4.490;2024-01-11T04:59:18;-3.00;99.90
41447;DHT22;27185;52.040;4.490;2024-01-11T05:02:04;-3.00;99.90
41447;DHT22;27185;52.040;4.490;2024-01-11T05:04:49;-3.00;99.90
41447;DHT22;27185;52.040;4.490;2024-01-11T05:07:35;-3.00;99.90
41447;DHT22;27185;52.040;4.490;2024-01-11T05:10:21;-3.00;99.90
41447;DHT22;27185;52.040;4.490;2024-01-11T05:13:06;-3.00;99.90
41447;DHT22;27185;52.040;4.490;2024-01-11T05:15:52;-3.00;99.90
41447;DHT22;27185;52.040;4.490;2024-01-11T05:18:37;-3.00;99.90
41447;DHT22;27185;52.040;4.490;2024-01-11T05:21:23;-3.10;99.90
41447;DHT22;27185;52.040;4.490;2024-01-11T05:24:09;-3.10;99.90
41447;DHT22;27185;52.040;4.490;2024-01-11T05:26:55;-3.10;99.90
41447;DHT22;27185;52.040;4.490;2024-01-11T05:29:40;-3.20;99.90
41447;DHT22;27185;52.040;4.490;2024-01-11T05:32:26;-3.20;99.90
41447;DHT22;27185;52.040;4.490;2024-01-11T05:35:12;-3.20;99.90
41447;DHT22;27185;52.040;4.490;2024-01-11T05:37:58;-3.30;99.90
41447;DHT22;27185;52.040;4.490;2024-01-11T05:40:43;-3.40;99.90
41447;DHT22;27185;52.040;4.490;2024-01-11T05:43:29;-3.40;99.90
41447;DHT22;27185;52.040;4.490;2024-01-11T05:46:15;-3.50;99.90
41447;DHT22;27185;52.040;4.490;2024-01-11T05:49:00;-3.50;99.90
41447;DHT22;27185;52.040;4.490;2024-01-11T05:51:46;-3.60;99.90
41447;DHT22;27185;52.040;4.490;2024-01-11T05:54:31;-3.60;99.90
41447;DHT22;27185;52.040;4.490;2024-01-11T05:57:17;-3.70;99.90
41447;DHT22;27185;52.040;4.490;2024-01-11T06:00:04;-3.70;99.90
41447;DHT22;27185;52.040;4.490;2024-01-11T06:02:50;-3.70;99.90
41447;DHT22;27185;52.040;4.490;2024-01-11T06:05:36;-3.80;99.90
41447;DHT22;27185;52.040;4.490;2024-01-11T06:08:21;-3.90;99.90
41447;DHT22;27185;52.040;4.490;2024-01-11T06:11:07;-3.90;99.90
41447;DHT22;27185;52.040;4.490;2024-01-11T06:13:52;-3.90;99.90
41447;DHT22;27185;52.040;4.490;2024-01-11T06:16:40;-3.90;99.90
41447;DHT22;27185;52.040;4.490;2024-01-11T06:19:26;-4.00;99.90
41447;DHT22;27185;52.040;4.490;2024-01-11T06:22:12;-4.00;99.90
41447;DHT22;27185;52.040;4.490;2024-01-11T06:24:57;-4.00;99.90
41447;DHT22;27185;52.040;4.490;2024-01-11T06:27:46;-4.00;99.90
41447;DHT22;27185;52.040;4.490;2024-01-11T06:30:32;-4.00;99.90
41447;DHT22;27185;52.040;4.490;2024-01-11T06:33:18;-4.00;99.90
41447;DHT22;27185;52.040;4.490;2024-01-11T06:36:05;-4.10;99.90
41447;DHT22;27185;52.040;4.490;2024-01-11T06:38:51;-4.00;99.90
41447;DHT22;27185;52.040;4.490;2024-01-11T06:41:37;-4.00;99.90
41447;DHT22;27185;52.040;4.490;2024-01-11T06:44:22;-4.00;99.90
41447;DHT22;27185;52.040;4.490;2024-01-11T06:47:08;-4.00;99.90
41447;DHT22;27185;52.040;4.490;2024-01-11T06:49:54;-4.00;99.90
41447;DHT22;27185;52.040;4.490;2024-01-11T06:52:39;-3.90;99.90
41447;DHT22;27185;52.040;4.490;2024-01-11T06:55:25;-3.80;99.90
41447;DHT22;27185;52.040;4.490;2024-01-11T06:58:11;-3.70;99.90
41447;DHT22;27185;52.040;4.490;2024-01-11T07:00:56;-3.60;99.90
41447;DHT22;27185;52.040;4.490;2024-01-11T07:03:42;-3.50;99.90
41447;DHT22;27185;52.040;4.490;2024-01-11T07:06:27;-3.40;99.90
41447;DHT22;27185;52.040;4.490;2024-01-11T07:09:13;-3.20;99.90
41447;DHT22;27185;52.040;4.490;2024-01-11T07:11:59;-3.20;99.90
41447;DHT22;27185;52.040;4.490;2024-01-11T07:14:46;-3.00;99.90
41447;DHT22;27185;52.040;4.490;2024-01-11T07:17:31;-3.00;99.90
41447;DHT22;27185;52.040;4.490;2024-01-11T07:20:17;-2.90;99.90
41447;DHT22;27185;52.040;4.490;2024-01-11T07:23:04;-2.80;99.90
41447;DHT22;27185;52.040;4.490;2024-01-11T07:25:50;-2.80;99.90
41447;DHT22;27185;52.040;4.490;2024-01-11T07:28:35;-2.70;99.90
41447;DHT22;27185;52.040;4.490;2024-01-11T07:31:22;-2.70;99.90
41447;DHT22;27185;52.040;4.490;2024-01-11T07:34:08;-2.70;99.90
41447;DHT22;27185;52.040;4.490;2024-01-11T07:36:53;-2.70;99.90
41447;DHT22;27185;52.040;4.490;2024-01-11T07:39:39;-2.70;99.90
41447;DHT22;27185;52.040;4.490;2024-01-11T07:42:25;-2.70;99.90
41447;DHT22;27185;52.040;4.490;2024-01-11T07:45:10;-2.70;99.90
41447;DHT22;27185;52.040;4.490;2024-01-11T07:47:56;-2.70;99.90
41447;DHT22;27185;52.040;4.490;2024-01-11T07:50:42;-2.70;99.90
41447;DHT22;27185;52.040;4.490;2024-01-11T07:53:27;-2.80;99.90
41447;DHT22;27185;52.040;4.490;2024-01-11T07:56:13;-2.80;99.90
41447;DHT22;27185;52.040;4.490;2024-01-11T07:58:59;-2.90;99.90
41447;DHT22;27185;52.040;4.490;2024-01-11T08:01:54;-2.90;99.90
41447;DHT22;27185;52.040;4.490;2024-01-11T08:04:39;-3.00;99.90
41447;DHT22;27185;52.040;4.490;2024-01-11T08:07:26;-3.00;99.90
41447;DHT22;27185;52.040;4.490;2024-01-11T08:10:11;-3.00;99.90
41447;DHT22;27185;52.040;4.490;2024-01-11T08:12:57;-3.00;99.90
41447;DHT22;27185;52.040;4.490;2024-01-11T08:15:44;-3.10;99.90
41447;DHT22;27185;52.040;4.490;2024-01-11T08:18:31;-3.10;99.90
41447;DHT22;27185;52.040;4.490;2024-01-11T08:21:16;-3.10;99.90
41447;DHT22;27185;52.040;4.490;2024-01-11T08:24:02;-3.10;99.90
41447;DHT22;27185;52.040;4.490;2024-01-11T08:26:48;-3.10;99.90
41447;DHT22;27185;52.040;4.490;2024-01-11T08:29:33;-3.20;99.90
41447;DHT22;27185;52.040;4.490;2024-01-11T08:32:19;-3.10;99.90
41447;DHT22;27185;52.040;4.490;2024-01-11T08:35:05;-3.10;99.90
41447;DHT22;27185;52.040;4.490;2024-01-11T08:37:52;-3.00;99.90
41447;DHT22;27185;52.040;4.490;2024-01-11T08:40:37;-3.00;99.90
41447;DHT22;27185;52.040;4.490;2024-01-11T08:43:23;-3.00;99.90
41447;DHT22;27185;52.040;4.490;2024-01-11T08:46:08;-2.90;99.90
41447;DHT22;27185;52.040;4.490;2024-01-11T08:48:54;-2.80;99.90
41447;DHT22;27185;52.040;4.490;2024-01-11T08:51:42;-2.80;99.90
41447;DHT22;27185;52.040;4.490;2024-01-11T08:54:33;-2.70;99.90
41447;DHT22;27185;52.040;4.490;2024-01-11T08:57:19;-2.60;99.90
41447;DHT22;27185;52.040;4.490;2024-01-11T09:00:05;-2.50;99.90
41447;DHT22;27185;52.040;4.490;2024-01-11T09:02:53;-2.40;99.90
41447;DHT22;27185;52.040;4.490;2024-01-11T09:05:39;-2.40;99.90
41447;DHT22;27185;52.040;4.490;2024-01-11T09:08:25;-2.30;99.90
41447;DHT22;27185;52.040;4.490;2024-01-11T09:11:10;-2.20;99.90
41447;DHT22;27185;52.040;4.490;2024-01-11T09:13:56;-2.00;99.90
41447;DHT22;27185;52.040;4.490;2024-01-11T09:16:43;-2.00;99.90
41447;DHT22;27185;52.040;4.490;2024-01-11T09:19:30;-1.80;99.90
41447;DHT22;27185;52.040;4.490;2024-01-11T09:22:16;-1.70;99.90
41447;DHT22;27185;52.040;4.490;2024-01-11T09:25:02;-1.60;99.90
41447;DHT22;27185;52.040;4.490;2024-01-11T09:27:47;-1.40;99.90
41447;DHT22;27185;52.040;4.490;2024-01-11T09:30:33;-1.30;99.90
41447;DHT22;27185;52.040;4.490;2024-01-11T09:33:20;-1.20;99.90
41447;DHT22;27185;52.040;4.490;2024-01-11T09:36:07;-1.10;99.90
41447;DHT22;27185;52.040;4.490;2024-01-11T09:38:52;-1.00;99.90
41447;DHT22;27185;52.040;4.490;2024-01-11T09:41:42;-0.90;99.90
41447;DHT22;27185;52.040;4.490;2024-01-11T09:44:30;-0.70;99.90
41447;DHT22;27185;52.040;4.490;2024-01-11T09:47:16;-0.50;99.90
41447;DHT22;27185;52.040;4.490;2024-01-11T09:50:03;-0.40;99.90
41447;DHT22;27185;52.040;4.490;2024-01-11T09:52:50;-0.30;99.90
41447;DHT22;27185;52.040;4.490;2024-01-11T09:55:36;-0.10;99.90
41447;DHT22;27185;52.040;4.490;2024-01-11T09:58:22;0.10;99.90
41447;DHT22;27185;52.040;4.490;2024-01-11T10:01:09;0.20;99.90
41447;DHT22;27185;52.040;4.490;2024-01-11T10:03:58;0.40;99.90
41447;DHT22;27185;52.040;4.490;2024-01-11T10:06:45;0.50;99.90
41447;DHT22;27185;52.040;4.490;2024-01-11T10:09:30;0.70;99.90
41447;DHT22;27185;52.040;4.490;2024-01-11T10:12:20;0.80;99.90
41447;DHT22;27185;52.040;4.490;2024-01-11T10:15:09;0.90;99.90
41447;DHT22;27185;52.040;4.490;2024-01-11T10:17:55;1.00;99.90
41447;DHT22;27185;52.040;4.490;2024-01-11T10:20:41;1.10;99.90
41447;DHT22;27185;52.040;4.490;2024-01-11T10:23:27;1.20;99.90
41447;DHT22;27185;52.040;4.490;2024-01-11T10:26:18;1.30;99.90
41447;DHT22;27185;52.040;4.490;2024-01-11T10:29:05;1.40;99.90
41447;DHT22;27185;52.040;4.490;2024-01-11T10:31:56;1.50;99.90
41447;DHT22;27185;52.040;4.490;2024-01-11T10:34:42;1.50;99.90
41447;DHT22;27185;52.040;4.490;2024-01-11T10:37:28;1.70;99.90
41447;DHT22;27185;52.040;4.490;2024-01-11T10:40:15;1.80;99.90
41447;DHT22;27185;52.040;4.490;2024-01-11T10:43:03;1.80;99.90
41447;DHT22;27185;52.040;4.490;2024-01-11T10:45:52;1.90;99.90
41447;DHT22;27185;52.040;4.490;2024-01-11T10:48:39;2.00;99.90
41447;DHT22;27185;52.040;4.490;2024-01-11T10:51:31;2.10;99.90
41447;DHT22;27185;52.040;4.490;2024-01-11T10:54:19;2.20;99.90
41447;DHT22;27185;52.040;4.490;2024-01-11T10:57:05;2.20;99.90
41447;DHT22;27185;52.040;4.490;2024-01-11T10:59:53;2.30;99.90
41447;DHT22;27185;52.040;4.490;2024-01-11T11:02:39;2.40;99.90
41447;DHT22;27185;52.040;4.490;2024-01-11T11:05:27;2.40;99.90
41447;DHT22;27185;52.040;4.490;2024-01-11T11:08:14;2.50;99.90
41447;DHT22;27185;52.040;4.490;2024-01-11T11:11:02;2.60;99.90
41447;DHT22;27185;52.040;4.490;2024-01-11T11:13:51;2.60;99.90
41447;DHT22;27185;52.040;4.490;2024-01-11T11:16:37;2.70;99.90
41447;DHT22;27185;52.040;4.490;2024-01-11T11:19:23;2.70;99.90
41447;DHT22;27185;52.040;4.490;2024-01-11T11:22:08;2.80;99.90
41447;DHT22;27185;52.040;4.490;2024-01-11T11:25:06;2.90;99.90
41447;DHT22;27185;52.040;4.490;2024-01-11T11:27:53;3.00;99.90
41447;DHT22;27185;52.040;4.490;2024-01-11T11:30:41;3.00;99.90
41447;DHT22;27185;52.040;4.490;2024-01-11T11:33:27;3.10;99.90
41447;DHT22;27185;52.040;4.490;2024-01-11T11:36:12;3.20;99.90
41447;DHT22;27185;52.040;4.490;2024-01-11T11:39:00;3.30;99.90
41447;DHT22;27185;52.040;4.490;2024-01-11T11:41:47;3.40;99.90
41447;DHT22;27185;52.040;4.490;2024-01-11T11:44:34;3.50;99.90
41447;DHT22;27185;52.040;4.490;2024-01-11T11:47:24;3.60;99.90
41447;DHT22;27185;52.040;4.490;2024-01-11T11:50:10;3.70;99.90
41447;DHT22;27185;52.040;4.490;2024-01-11T11:52:57;3.70;99.90
41447;DHT22;27185;52.040;4.490;2024-01-11T11:55:44;3.80;99.90
41447;DHT22;27185;52.040;4.490;2024-01-11T11:58:31;3.80;99.90
41447;DHT22;27185;52.040;4.490;2024-01-11T12:01:17;3.90;99.90
41447;DHT22;27185;52.040;4.490;2024-01-11T12:04:03;4.00;99.90
41447;DHT22;27185;52.040;4.490;2024-01-11T12:06:48;4.00;99.90
41447;DHT22;27185;52.040;4.490;2024-01-11T12:09:34;4.10;99.90
41447;DHT22;27185;52.040;4.490;2024-01-11T12:12:19;4.20;99.90
41447;DHT22;27185;52.040;4.490;2024-01-11T12:15:07;4.30;99.90
41447;DHT22;27185;52.040;4.490;2024-01-11T12:17:59;4.30;99.90
41447;DHT22;27185;52.040;4.490;2024-01-11T12:20:45;4.40;99.90
41447;DHT22;27185;52.040;4.490;2024-01-11T12:23:32;4.50;99.90
41447;DHT22;27185;52.040;4.490;2024-01-11T12:26:19;4.60;99.90
41447;DHT22;27185;52.040;4.490;2024-01-11T12:29:07;4.70;99.90
41447;DHT22;27185;52.040;4.490;2024-01-11T12:31:56;4.70;99.90
41447;DHT22;27185;52.040;4.490;2024-01-11T12:34:44;4.80;99.90
41447;DHT22;27185;52.040;4.490;2024-01-11T12:37:30;4.80;99.90
41447;DHT22;27185;52.040;4.490;2024-01-11T12:40:16;4.90;99.90
41447;DHT22;27185;52.040;4.490;2024-01-11T12:43:02;5.00;99.90
41447;DHT22;27185;52.040;4.490;2024-01-11T12:45:47;5.00;99.90
41447;DHT22;27185;52.040;4.490;2024-01-11T12:48:33;5.10;99.90
41447;DHT22;27185;52.040;4.490;2024-01-11T12:51:20;5.10;99.90
41447;DHT22;27185;52.040;4.490;2024-01-11T12:54:11;5.20;99.90
41447;DHT22;27185;52.040;4.490;2024-01-11T12:56:57;5.20;99.90
41447;DHT22;27185;52.040;4.490;2024-01-11T12:59:43;5.20;99.90
41447;DHT22;27185;52.040;4.490;2024-01-11T13:02:30;5.20;99.90
41447;DHT22;27185;52.040;4.490;2024-01-11T13:05:16;5.30;99.90
41447;DHT22;27185;52.040;4.490;2024-01-11T13:08:02;5.30;99.90
41447;DHT22;27185;52.040;4.490;2024-01-11T13:10:51;5.30;99.90
41447;DHT22;27185;52.040;4.490;2024-01-11T13:13:36;5.30;99.90
41447;DHT22;27185;52.040;4.490;2024-01-11T13:16:25;5.30;99.90
41447;DHT22;27185;52.040;4.490;2024-01-11T13:19:11;5.30;99.90
41447;DHT22;27185;52.040;4.490;2024-01-11T13:21:57;5.30;99.90
41447;DHT22;27185;52.040;4.490;2024-01-11T13:24:42;5.40;99.90
41447;DHT22;27185;52.040;4.490;2024-01-11T13:27:28;5.40;99.90
41447;DHT22;27185;52.040;4.490;2024-01-11T13:30:14;5.40;99.90
41447;DHT22;27185;52.040;4.490;2024-01-11T13:32:59;5.40;99.90
41447;DHT22;27185;52.040;4.490;2024-01-11T13:35:45;5.40;99.90
41447;DHT22;27185;52.040;4.490;2024-01-11T13:38:31;5.40;99.90
41447;DHT22;27185;52.040;4.490;2024-01-11T13:41:22;5.40;99.90
41447;DHT22;27185;52.040;4.490;2024-01-11T13:44:07;5.40;99.90
41447;DHT22;27185;52.040;4.490;2024-01-11T13:46:55;5.40;99.90
41447;DHT22;27185;52.040;4.490;2024-01-11T13:49:40;5.40;99.90
41447;DHT22;27185;52.040;4.490;2024-01-11T13:52:26;5.40;99.90
41447;DHT22;27185;52.040;4.490;2024-01-11T13:55:12;5.40;99.90
41447;DHT22;27185;52.040;4.490;2024-01-11T13:57:59;5.40;99.90
41447;DHT22;27185;52.040;4.490;2024-01-11T14:00:44;5.40;99.90
41447;DHT22;27185;52.040;4.490;2024-01-11T14:03:30;5.40;99.90
41447;DHT22;27185;52.040;4.490;2024-01-11T14:06:15;5.40;99.90
41447;DHT22;27185;52.040;4.490;2024-01-11T14:09:02;5.40;99.90
41447;DHT22;27185;52.040;4.490;2024-01-11T14:11:50;5.50;99.90
41447;DHT22;27185;52.040;4.490;2024-01-11T14:14:35;5.50;99.90
41447;DHT22;27185;52.040;4.490;2024-01-11T14:17:21;5.50;99.90
41447;DHT22;27185;52.040;4.490;2024-01-11T14:20:08;5.50;99.90
41447;DHT22;27185;52.040;4.490;2024-01-11T14:22:58;5.50;99.90
41447;DHT22;27185;52.040;4.490;2024-01-11T14:25:44;5.50;99.90
41447;DHT22;27185;52.040;4.490;2024-01-11T14:28:29;5.50;99.90
41447;DHT22;27185;52.040;4.490;2024-01-11T14:31:15;5.50;99.90
41447;DHT22;27185;52.040;4.490;2024-01-11T14:34:01;5.50;99.90
41447;DHT22;27185;52.040;4.490;2024-01-11T14:36:47;5.40;99.90
41447;DHT22;27185;52.040;4.490;2024-01-11T14:39:32;5.40;99.90
41447;DHT22;27185;52.040;4.490;2024-01-11T14:42:18;5.40;99.90
41447;DHT22;27185;52.040;4.490;2024-01-11T14:45:05;5.40;99.90
41447;DHT22;27185;52.040;4.490;2024-01-11T14:47:50;5.30;99.90
41447;DHT22;27185;52.040;4.490;2024-01-11T14:50:36;5.30;99.90
41447;DHT22;27185;52.040;4.490;2024-01-11T14:53:22;5.30;99.90
41447;DHT22;27185;52.040;4.490;2024-01-11T14:56:07;5.30;99.90
41447;DHT22;27185;52.040;4.490;2024-01-11T14:58:53;5.30;99.90
41447;DHT22;27185;52.040;4.490;2024-01-11T15:01:39;5.20;99.90
41447;DHT22;27185;52.040;4.490;2024-01-11T15:04:25;5.20;99.90
41447;DHT22;27185;52.040;4.490;2024-01-11T15:07:11;5.20;99.90
41447;DHT22;27185;52.040;4.490;2024-01-11T15:09:58;5.10;99.90
41447;DHT22;27185;52.040;4.490;2024-01-11T15:12:44;5.10;99.90
41447;DHT22;27185;52.040;4.490;2024-01-11T15:15:29;5.10;99.90
41447;DHT22;27185;52.040;4.490;2024-01-11T15:18:15;5.10;99.90
41447;DHT22;27185;52.040;4.490;2024-01-11T15:21:01;5.10;99.90
41447;DHT22;27185;52.040;4.490;2024-01-11T15:23:46;5.00;99.90
41447;DHT22;27185;52.040;4.490;2024-01-11T15:26:33;5.00;99.90
41447;DHT22;27185;52.040;4.490;2024-01-11T15:29:18;5.00;99.90
41447;DHT22;27185;52.040;4.490;2024-01-11T15:32:04;5.00;99.90
41447;DHT22;27185;52.040;4.490;2024-01-11T15:34:50;5.00;99.90
41447;DHT22;27185;52.040;4.490;2024-01-11T15:37:35;4.90;99.90
41447;DHT22;27185;52.040;4.490;2024-01-11T15:40:21;4.90;99.90
41447;DHT22;27185;52.040;4.490;2024-01-11T15:43:07;4.80;99.90
41447;DHT22;27185;52.040;4.490;2024-01-11T15:45:53;4.80;99.90
41447;DHT22;27185;52.040;4.490;2024-01-11T15:48:38;4.80;99.90
41447;DHT22;27185;52.040;4.490;2024-01-11T15:51:24;4.70;99.90
41447;DHT22;27185;52.040;4.490;2024-01-11T15:54:10;4.70;99.90
41447;DHT22;27185;52.040;4.490;2024-01-11T15:56:56;4.80;99.90
41447;DHT22;27185;52.040;4.490;2024-01-11T15:59:42;4.70;99.90
41447;DHT22;27185;52.040;4.490;2024-01-11T16:02:28;4.70;99.90
41447;DHT22;27185;52.040;4.490;2024-01-11T16:05:14;4.80;99.90
41447;DHT22;27185;52.040;4.490;2024-01-11T16:07:59;4.80;99.90
41447;DHT22;27185;52.040;4.490;2024-01-11T16:10:45;4.80;99.90
41447;DHT22;27185;52.040;4.490;2024-01-11T16:13:30;4.70;99.90
41447;DHT22;27185;52.040;4.490;2024-01-11T16:16:16;4.70;99.90
41447;DHT22;27185;52.040;4.490;2024-01-11T16:19:01;4.70;99.90
41447;DHT22;27185;52.040;4.490;2024-01-11T16:21:47;4.70;99.90
41447;DHT22;27185;52.040;4.490;2024-01-11T16:24:33;4.70;99.90
41447;DHT22;27185;52.040;4.490;2024-01-11T16:27:19;4.70;99.90
41447;DHT22;27185;52.040;4.490;2024-01-11T16:30:05;4.70;99.90
41447;DHT22;27185;52.040;4.490;2024-01-11T16:32:51;4.60;99.90
41447;DHT22;27185;52.040;4.490;2024-01-11T16:35:37;4.60;99.90
41447;DHT22;27185;52.040;4.490;2024-01-11T16:38:23;4.60;99.90
41447;DHT22;27185;52.040;4.490;2024-01-11T16:41:09;4.60;99.90
41447;DHT22;27185;52.040;4.490;2024-01-11T16:43:54;4.60;99.90
41447;DHT22;27185;52.040;4.490;2024-01-11T16:46:40;4.60;99.90
41447;DHT22;27185;52.040;4.490;2024-01-11T16:49:26;4.70;99.90
41447;DHT22;27185;52.040;4.490;2024-01-11T16:52:18;4.70;99.90
41447;DHT22;27185;52.040;4.490;2024-01-11T16:55:04;4.70;99.90
41447;DHT22;27185;52.040;4.490;2024-01-11T16:57:49;4.70;99.90
41447;DHT22;27185;52.040;4.490;2024-01-11T17:00:35;4.70;99.90
41447;DHT22;27185;52.040;4.490;2024-01-11T17:03:21;4.70;99.90
41447;DHT22;27185;52.040;4.490;2024-01-11T17:06:12;4.80;99.90
41447;DHT22;27185;52.040;4.490;2024-01-11T17:09:03;4.80;99.90
41447;DHT22;27185;52.040;4.490;2024-01-11T17:11:50;4.80;99.90
41447;DHT22;27185;52.040;4.490;2024-01-11T17:14:36;4.80;99.90
41447;DHT22;27185;52.040;4.490;2024-01-11T17:17:22;4.80;99.90
41447;DHT22;27185;52.040;4.490;2024-01-11T17:20:09;4.80;99.90
41447;DHT22;27185;52.040;4.490;2024-01-11T17:22:55;4.90;99.90
41447;DHT22;27185;52.040;4.490;2024-01-11T17:25:41;4.90;99.90
41447;DHT22;27185;52.040;4.490;2024-01-11T17:28:27;4.90;99.90
41447;DHT22;27185;52.040;4.490;2024-01-11T17:31:12;4.90;99.90
41447;DHT22;27185;52.040;4.490;2024-01-11T17:33:58;4.90;99.90
41447;DHT22;27185;52.040;4.490;2024-01-11T17:36:43;4.90;99.90